Time;durP1;ratioP1;P1;durP2;ratioP2;P2;SDS_P1;SDS_P2;PMS_P1;PMS_P2;Temp;Humidity;BMP_temperature;BMP_pressure;BME280_temperature;BME280_humidity;BME280_pressure;Samples;Min_cycle;Max_cycle;Signal;HPM_P1;HPM_P2
2023/12/24 00:01:15;;;;;;;3.58;1.52;;;;;;;18.31;49.92;100813.78;4967672;28;20145;-33
2023/12/24 00:03:42;;;;;;;5.18;1.40;;;;;;;18.29;49.56;100816.66;4968997;28;20043;-33
2023/12/24 00:06:08;;;;;;;3.90;1.23;;;;;;;18.26;49.53;100803.53;4966935;28;20049;-33
2023/12/24 00:08:36;;;;;;;3.78;1.45;;;;;;;18.24;49.60;100782.22;4967910;28;20162;-33
2023/12/24 00:11:04;;;;;;;2.75;1.30;;;;;;;18.21;49.90;100779.88;4962644;28;20405;-33
2023/12/24 00:13:31;;;;;;;2.28;1.13;;;;;;;18.20;50.04;100763.91;4967112;28;20373;-33
2023/12/24 00:15:58;;;;;;;2.65;1.38;;;;;;;18.19;50.14;100772.97;4965806;28;20063;-33
2023/12/24 00:18:25;;;;;;;3.00;1.10;;;;;;;18.16;49.86;100773.25;4961839;28;20057;-33
2023/12/24 00:20:52;;;;;;;3.03;1.20;;;;;;;18.15;49.52;100761.69;4963159;28;20047;-33
2023/12/24 00:23:18;;;;;;;2.22;1.15;;;;;;;18.14;50.31;100743.09;4965945;28;20062;-33
2023/12/24 00:25:45;;;;;;;4.60;1.80;;;;;;;18.12;50.23;100763.84;4966922;28;20047;-33
2023/12/24 00:28:12;;;;;;;3.65;1.30;;;;;;;18.11;49.89;100754.13;4964751;28;20505;-33
2023/12/24 00:30:38;;;;;;;2.85;1.30;;;;;;;18.09;49.95;100756.09;4967070;28;20114;-33
2023/12/24 00:33:05;;;;;;;2.30;0.90;;;;;;;18.08;50.34;100751.75;4963221;28;20058;-33
2023/12/24 00:35:33;;;;;;;3.20;1.38;;;;;;;18.06;50.60;100745.72;4966436;28;20078;-33
2023/12/24 00:38:01;;;;;;;3.95;1.13;;;;;;;18.04;50.47;100737.81;4965999;28;20055;-33
2023/12/24 00:40:27;;;;;;;3.22;1.40;;;;;;;18.03;50.22;100736.13;4966104;28;20054;-33
2023/12/24 00:42:54;;;;;;;2.60;0.90;;;;;;;18.00;50.41;100745.31;4970497;28;20050;-33
2023/12/24 00:45:21;;;;;;;3.13;1.00;;;;;;;18.01;50.19;100743.50;4965978;28;20154;-33
2023/12/24 00:47:47;;;;;;;3.08;1.25;;;;;;;17.99;50.21;100734.75;4966392;28;20052;-33
2023/12/24 00:50:14;;;;;;;2.97;1.15;;;;;;;17.97;50.36;100732.25;4963418;28;20086;-33
2023/12/24 00:52:41;;;;;;;2.97;1.00;;;;;;;17.97;50.11;100732.25;4963135;28;20047;-33
2023/12/24 00:55:08;;;;;;;3.25;1.08;;;;;;;17.96;50.44;100730.53;4963786;28;20519;-34
2023/12/24 00:57:36;;;;;;;3.22;1.27;;;;;;;17.96;50.80;100718.97;4964762;28;20427;-33
2023/12/24 01:00:05;;;;;;;4.07;1.30;;;;;;;18.02;50.58;100723.72;4964279;28;20133;-33
2023/12/24 01:02:32;;;;;;;3.05;1.20;;;;;;;18.09;50.39;100730.16;4968593;28;20055;-33
2023/12/24 01:04:58;;;;;;;2.72;1.25;;;;;;;18.17;50.08;100726.66;4963092;28;20129;-33
2023/12/24 01:07:25;;;;;;;2.80;1.20;;;;;;;18.25;50.10;100713.28;4964783;28;20039;-33
2023/12/24 01:09:52;;;;;;;2.35;1.00;;;;;;;18.32;50.14;100711.66;4964689;28;20043;-33
2023/12/24 01:12:18;;;;;;;1.73;1.00;;;;;;;18.38;50.10;100713.72;4961459;28;20047;-33
2023/12/24 01:14:45;;;;;;;3.63;1.33;;;;;;;18.45;49.98;100716.59;4962860;28;20086;-33
2023/12/24 01:17:13;;;;;;;1.88;1.30;;;;;;;18.49;49.63;100712.59;4968396;28;20075;-34
2023/12/24 01:19:40;;;;;;;8.32;1.50;;;;;;;18.51;49.64;100715.97;4964477;28;20055;-33
2023/12/24 01:22:06;;;;;;;4.13;1.27;;;;;;;18.53;49.36;100716.63;4970287;28;20059;-33
2023/12/24 01:24:33;;;;;;;2.15;0.80;;;;;;;18.53;49.38;100700.53;4968546;28;20086;-33
2023/12/24 01:26:59;;;;;;;3.15;1.15;;;;;;;18.54;49.81;100712.97;4962260;28;20055;-33
2023/12/24 01:29:26;;;;;;;2.15;1.02;;;;;;;18.54;49.41;100717.50;4966843;28;20051;-33
2023/12/24 01:31:53;;;;;;;3.47;1.08;;;;;;;18.53;49.72;100705.06;4966087;28;20134;-33
2023/12/24 01:34:19;;;;;;;1.83;0.98;;;;;;;18.53;49.54;100703.22;4965184;28;20129;-33
2023/12/24 01:36:46;;;;;;;2.75;1.20;;;;;;;18.53;49.80;100695.16;4966776;28;20046;-33
2023/12/24 01:39:13;;;;;;;2.47;1.00;;;;;;;18.52;49.35;100693.50;4967473;28;20082;-33
2023/12/24 01:41:39;;;;;;;2.35;0.98;;;;;;;18.52;49.43;100673.88;4964396;28;20059;-33
2023/12/24 01:44:06;;;;;;;1.67;0.90;;;;;;;18.49;49.68;100689.31;4967520;28;20471;-33
2023/12/24 01:46:33;;;;;;;2.50;1.10;;;;;;;18.47;49.45;100683.25;4962371;28;20058;-33
2023/12/24 01:48:59;;;;;;;3.55;1.10;;;;;;;18.47;49.71;100677.03;4967364;28;20054;-33
2023/12/24 01:51:31;;;;;;;3.22;1.27;;;;;;;18.44;49.62;100664.78;4965771;28;20390;-33
2023/12/24 01:53:58;;;;;;;2.15;0.88;;;;;;;18.42;50.01;100669.47;4964941;28;20073;-33
2023/12/24 01:56:30;;;;;;;4.35;1.45;;;;;;;18.41;49.06;100669.63;4968496;28;20067;-33
2023/12/24 01:58:58;;;;;;;3.28;1.00;;;;;;;18.41;50.01;100664.25;4963694;28;20058;-33
2023/12/24 02:01:26;;;;;;;4.20;1.20;;;;;;;18.39;49.69;100659.06;4967298;28;20089;-33
2023/12/24 02:03:53;;;;;;;2.78;1.08;;;;;;;18.38;49.47;100659.22;4964477;28;20345;-33
2023/12/24 02:06:21;;;;;;;2.38;1.40;;;;;;;18.37;50.09;100652.16;4967405;28;20109;-33
2023/12/24 02:08:48;;;;;;;2.28;0.85;;;;;;;18.36;49.69;100653.16;4964958;28;20054;-33
2023/12/24 02:11:16;;;;;;;1.98;0.82;;;;;;;18.35;49.83;100636.22;4965183;28;20058;-33
2023/12/24 02:13:44;;;;;;;3.15;1.00;;;;;;;18.35;49.95;100643.44;4965959;28;20070;-33
2023/12/24 02:16:14;;;;;;;3.17;1.20;;;;;;;18.34;49.75;100641.78;4959023;28;20054;-33
2023/12/24 02:18:41;;;;;;;4.88;0.98;;;;;;;18.35;50.18;100619.28;4964968;28;20086;-33
2023/12/24 02:21:08;;;;;;;2.38;0.88;;;;;;;18.34;49.65;100625.66;4964809;28;20051;-33
2023/12/24 02:23:35;;;;;;;2.13;0.88;;;;;;;18.37;49.93;100628.00;4965964;28;20046;-33
2023/12/24 02:26:22;;;;;;;3.42;0.98;;;;;;;18.39;50.21;100618.81;4963932;28;20047;-33
2023/12/24 02:28:54;;;;;;;3.40;1.52;;;;;;;18.45;49.80;100630.72;4965377;28;20065;-33
2023/12/24 02:31:23;;;;;;;3.03;1.00;;;;;;;18.50;49.65;100621.19;4969931;28;20445;-33
2023/12/24 02:33:52;;;;;;;1.63;0.90;;;;;;;18.54;49.70;100621.72;4965575;28;20109;-33
2023/12/24 02:36:20;;;;;;;3.75;1.08;;;;;;;18.56;49.58;100622.38;4968036;28;20066;-33
2023/12/24 02:38:47;;;;;;;2.67;1.05;;;;;;;18.57;49.53;100620.53;4968626;28;20042;-33
2023/12/24 02:41:13;;;;;;;2.00;0.98;;;;;;;18.56;50.11;100618.88;4966815;28;20394;-33
2023/12/24 02:43:40;;;;;;;3.55;1.23;;;;;;;18.53;49.85;100624.56;4968283;28;20382;-33
2023/12/24 02:46:07;;;;;;;2.28;1.00;;;;;;;18.49;49.68;100607.94;4971828;28;20129;-33
2023/12/24 02:48:34;;;;;;;2.75;1.23;;;;;;;18.47;49.72;100605.41;4965370;28;20347;-32
2023/12/24 02:51:00;;;;;;;3.17;1.00;;;;;;;18.45;49.88;100601.19;4965960;28;20437;-33
2023/12/24 02:53:27;;;;;;;3.63;1.00;;;;;;;18.42;50.25;100612.28;4965004;28;20043;-32
2023/12/24 02:55:53;;;;;;;1.92;0.98;;;;;;;18.40;50.24;100601.69;4965412;28;20075;-33
2023/12/24 02:58:20;;;;;;;1.95;0.90;;;;;;;18.39;49.87;100612.59;4966515;28;20074;-33
2023/12/24 03:00:47;;;;;;;3.15;1.05;;;;;;;18.37;50.03;100604.72;4966703;28;20098;-38
2023/12/24 03:03:13;;;;;;;3.40;1.08;;;;;;;18.37;50.42;100587.75;4969281;28;20057;-33
2023/12/24 03:05:40;;;;;;;5.32;1.02;;;;;;;18.36;50.37;100580.72;4969151;28;20129;-33
2023/12/24 03:08:06;;;;;;;3.28;1.20;;;;;;;18.34;50.46;100590.78;4967091;28;20061;-33
2023/12/24 03:10:33;;;;;;;2.83;1.20;;;;;;;18.31;50.26;100573.16;4969362;28;20050;-33
2023/12/24 03:13:00;;;;;;;3.78;1.08;;;;;;;18.29;50.11;100575.19;4965442;28;20142;-33
2023/12/24 03:15:26;;;;;;;2.28;0.80;;;;;;;18.25;50.23;100569.28;4968679;28;20066;-33
2023/12/24 03:17:53;;;;;;;2.35;1.10;;;;;;;18.23;50.49;100559.72;4966216;28;20485;-33
2023/12/24 03:20:19;;;;;;;1.60;0.95;;;;;;;18.21;50.29;100562.56;4968928;28;20055;-33
2023/12/24 03:22:46;;;;;;;1.90;0.90;;;;;;;18.18;50.37;100570.09;4963629;28;20346;-33
2023/12/24 03:25:13;;;;;;;3.10;1.17;;;;;;;18.13;50.73;100559.84;4966291;28;20501;-33
2023/12/24 03:27:39;;;;;;;2.67;0.90;;;;;;;18.10;51.08;100553.97;4965737;28;20672;-33
2023/12/24 03:30:06;;;;;;;3.97;1.00;;;;;;;18.05;50.95;100551.78;4967938;28;20549;-33
2023/12/24 03:32:33;;;;;;;2.25;0.80;;;;;;;18.03;50.91;100558.28;4965564;28;20046;-32
2023/12/24 03:35:00;;;;;;;3.00;0.93;;;;;;;18.02;51.21;100560.13;4966496;28;20320;-32
2023/12/24 03:37:27;;;;;;;4.25;1.27;;;;;;;18.06;51.17;100553.44;4969557;28;20141;-33
2023/12/24 03:39:53;;;;;;;2.47;0.90;;;;;;;18.12;51.31;100547.41;4966309;28;20506;-33
2023/12/24 03:42:20;;;;;;;2.65;1.00;;;;;;;18.18;50.92;100548.63;4967394;28;20357;-33
2023/12/24 03:44:46;;;;;;;2.30;1.00;;;;;;;18.24;50.86;100526.50;4964065;28;20170;-33
2023/12/24 03:47:13;;;;;;;2.20;0.98;;;;;;;18.32;50.71;100544.47;4966587;28;20049;-33
2023/12/24 03:49:39;;;;;;;3.30;1.00;;;;;;;18.39;50.44;100537.47;4964044;28;20061;-33
2023/12/24 03:52:06;;;;;;;3.20;1.00;;;;;;;18.44;50.26;100535.13;4966445;28;20050;-33
2023/12/24 03:54:33;;;;;;;2.75;1.00;;;;;;;18.49;50.57;100522.03;4960325;28;20102;-33
2023/12/24 03:56:59;;;;;;;3.17;1.00;;;;;;;18.51;50.57;100541.53;4962896;28;20090;-33
2023/12/24 03:59:28;;;;;;;2.88;0.93;;;;;;;18.54;50.32;100546.56;4961780;28;20079;-33
2023/12/24 04:01:55;;;;;;;1.00;0.70;;;;;;;18.54;50.24;100527.78;4964901;28;20054;-33
2023/12/24 04:04:23;;;;;;;2.33;1.02;;;;;;;18.55;50.45;100536.66;4961848;28;20098;-33
2023/12/24 04:06:49;;;;;;;1.67;0.80;;;;;;;18.56;50.07;100538.34;4963813;28;20125;-33
2023/12/24 04:09:16;;;;;;;1.25;0.68;;;;;;;18.55;50.26;100537.50;4967670;28;20482;-33
2023/12/24 04:11:43;;;;;;;3.92;0.90;;;;;;;18.56;50.05;100551.75;4967039;28;20051;-33
2023/12/24 04:14:09;;;;;;;2.72;0.65;;;;;;;18.55;50.48;100542.88;4964278;28;20058;-33
2023/12/24 04:16:36;;;;;;;3.20;0.90;;;;;;;18.54;50.43;100540.38;4966796;28;20560;-33
2023/12/24 04:19:02;;;;;;;2.08;0.80;;;;;;;18.53;50.05;100533.28;4967228;28;20134;-33
2023/12/24 04:21:33;;;;;;;1.80;0.93;;;;;;;18.50;50.74;100527.28;4968443;28;20050;-33
2023/12/24 04:23:59;;;;;;;2.72;1.00;;;;;;;18.48;50.41;100536.47;4965354;28;20126;-33
2023/12/24 04:26:26;;;;;;;1.60;0.75;;;;;;;18.46;50.59;100523.22;4968041;28;20090;-33
2023/12/24 04:28:53;;;;;;;2.00;0.77;;;;;;;18.44;50.30;100530.59;4967438;28;20047;-33
2023/12/24 04:31:19;;;;;;;1.10;0.70;;;;;;;18.42;50.47;100537.97;4963886;28;20393;-33
2023/12/24 04:33:46;;;;;;;1.17;0.70;;;;;;;18.41;50.58;100539.00;4966712;28;20105;-33
2023/12/24 04:36:21;;;;;;;2.33;0.80;;;;;;;18.39;50.74;100527.56;4964323;28;20051;-33
2023/12/24 04:38:48;;;;;;;1.70;0.93;;;;;;;18.41;50.84;100530.06;4966132;28;20409;-33
2023/12/24 04:41:19;;;;;;;1.98;0.80;;;;;;;18.39;51.10;100526.72;4964043;28;20145;-33
2023/12/24 04:43:45;;;;;;;1.92;0.68;;;;;;;18.38;50.44;100517.84;4966764;28;20047;-33
2023/12/24 04:46:12;;;;;;;1.35;0.60;;;;;;;18.37;50.58;100512.63;4966911;28;20051;-33
2023/12/24 04:48:39;;;;;;;4.65;1.42;;;;;;;18.36;50.70;100503.75;4964752;28;20051;-32
2023/12/24 04:51:06;;;;;;;1.75;0.82;;;;;;;18.39;50.62;100499.91;4967476;28;20414;-32
2023/12/24 04:53:32;;;;;;;2.92;0.85;;;;;;;18.40;50.60;100512.31;4965854;28;20050;-32
2023/12/24 04:55:59;;;;;;;2.40;0.77;;;;;;;18.41;50.78;100503.25;4962547;28;20149;-32
2023/12/24 04:58:26;;;;;;;1.30;0.82;;;;;;;18.42;50.86;100504.94;4965693;28;20456;-32
2023/12/24 05:00:52;;;;;;;2.28;0.95;;;;;;;18.43;50.85;100506.63;4962891;28;20105;-32
2023/12/24 05:03:19;;;;;;;1.58;0.75;;;;;;;18.43;50.70;100496.72;4968339;28;20108;-32
2023/12/24 05:05:46;;;;;;;2.47;0.85;;;;;;;18.45;50.54;100501.91;4963559;28;20078;-33
2023/12/24 05:08:12;;;;;;;2.28;0.65;;;;;;;18.46;50.91;100508.97;4966580;28;20090;-33
2023/12/24 05:10:39;;;;;;;2.60;1.00;;;;;;;18.49;50.91;100503.25;4965519;28;20138;-33
2023/12/24 05:13:06;;;;;;;0.77;0.47;;;;;;;18.52;50.87;100510.16;4967791;28;20055;-33
2023/12/24 05:15:32;;;;;;;1.52;0.68;;;;;;;18.54;50.68;100509.00;4965209;28;20449;-33
2023/12/24 05:17:59;;;;;;;1.75;0.50;;;;;;;18.57;50.75;100500.59;4964201;28;20043;-36
2023/12/24 05:20:26;;;;;;;1.17;0.70;;;;;;;18.60;50.41;100494.91;4967549;28;20223;-33
2023/12/24 05:22:52;;;;;;;1.48;0.57;;;;;;;18.62;50.22;100497.44;4964497;28;20081;-33
2023/12/24 05:25:20;;;;;;;1.35;0.70;;;;;;;18.65;50.04;100492.56;4969006;28;20074;-33
2023/12/24 05:27:47;;;;;;;1.70;0.80;;;;;;;18.66;50.56;100496.94;4962461;28;20441;-33
2023/12/24 05:30:13;;;;;;;1.77;0.65;;;;;;;18.66;50.56;100504.16;4969174;28;20058;-33
2023/12/24 05:32:40;;;;;;;2.53;0.80;;;;;;;18.67;50.54;100508.50;4962836;28;20047;-33
2023/12/24 05:35:07;;;;;;;0.93;0.63;;;;;;;18.67;50.28;100489.72;4965636;28;20105;-33
2023/12/24 05:37:33;;;;;;;1.77;0.80;;;;;;;18.66;50.43;100502.31;4964089;28;20050;-33
2023/12/24 05:40:00;;;;;;;0.90;0.57;;;;;;;18.66;50.44;100496.09;4966345;28;20054;-33
2023/12/24 05:42:27;;;;;;;2.42;0.85;;;;;;;18.65;50.34;100489.91;4958637;28;20430;-33
2023/12/24 05:44:53;;;;;;;1.98;0.95;;;;;;;18.65;50.66;100491.72;4963113;28;20398;-33
2023/12/24 05:47:20;;;;;;;2.55;0.93;;;;;;;18.63;50.50;100485.69;4966843;28;20129;-33
2023/12/24 05:49:46;;;;;;;1.33;0.60;;;;;;;18.62;50.34;100473.28;4960687;28;20133;-33
2023/12/24 05:52:13;;;;;;;2.22;1.15;;;;;;;18.60;50.70;100469.91;4960628;28;20079;-33
2023/12/24 05:54:40;;;;;;;2.20;0.80;;;;;;;18.58;50.78;100472.75;4960646;28;20059;-33
2023/12/24 05:57:06;;;;;;;3.88;0.95;;;;;;;18.56;51.02;100460.50;4965367;28;20397;-33
2023/12/24 05:59:33;;;;;;;1.23;0.52;;;;;;;18.54;50.63;100466.06;4961060;28;20047;-33
2023/12/24 06:01:59;;;;;;;1.88;0.90;;;;;;;18.53;50.70;100458.16;4962194;28;20056;-33
2023/12/24 06:04:26;;;;;;;1.65;0.90;;;;;;;18.52;50.77;100457.31;4962294;28;20537;-33
2023/12/24 06:06:53;;;;;;;3.58;1.02;;;;;;;18.51;50.94;100471.75;4965953;28;20051;-33
2023/12/24 06:09:20;;;;;;;2.13;0.70;;;;;;;18.52;50.61;100451.09;4969098;28;20439;-33
2023/12/24 06:11:46;;;;;;;2.22;1.05;;;;;;;18.50;50.62;100462.03;4965469;28;20070;-32
2023/12/24 06:14:13;;;;;;;2.83;0.90;;;;;;;18.48;50.65;100462.16;4965319;28;20051;-32
2023/12/24 06:16:40;;;;;;;2.28;1.00;;;;;;;18.47;50.82;100456.97;4967916;28;20054;-32
2023/12/24 06:19:06;;;;;;;1.73;0.90;;;;;;;18.47;51.13;100467.72;4963997;28;20050;-32
2023/12/24 06:21:33;;;;;;;3.58;1.10;;;;;;;18.49;50.65;100473.75;4967310;28;20173;-32
2023/12/24 06:24:00;;;;;;;2.67;1.15;;;;;;;18.53;50.87;100464.34;4969548;28;20445;-33
2023/12/24 06:26:26;;;;;;;3.17;0.85;;;;;;;18.55;50.93;100462.34;4965335;28;20150;-33
2023/12/24 06:28:53;;;;;;;3.45;0.90;;;;;;;18.58;50.77;100464.72;4967836;28;20050;-35
2023/12/24 06:31:21;;;;;;;2.00;0.90;;;;;;;18.63;50.76;100467.72;4965435;28;20148;-33
2023/12/24 06:33:48;;;;;;;2.58;0.80;;;;;;;18.65;50.77;100463.06;4966581;28;20051;-33
2023/12/24 06:36:15;;;;;;;4.90;1.42;;;;;;;18.68;50.34;100477.97;4963524;28;20042;-33
2023/12/24 06:38:42;;;;;;;2.05;1.10;;;;;;;18.68;50.29;100478.78;4967157;28;20134;-33
2023/12/24 06:41:08;;;;;;;2.25;0.90;;;;;;;18.69;50.50;100483.19;4967931;28;20125;-32
2023/12/24 06:43:37;;;;;;;2.85;0.95;;;;;;;18.70;50.59;100471.47;4966406;28;20058;-32
2023/12/24 06:46:06;;;;;;;2.72;0.90;;;;;;;18.71;50.62;100462.41;4964114;28;20133;-32
2023/12/24 06:48:33;;;;;;;2.60;1.02;;;;;;;18.76;50.91;100445.78;4968013;28;20055;-32
2023/12/24 06:51:00;;;;;;;2.42;0.98;;;;;;;18.81;50.63;100453.31;4962623;28;20051;-32
2023/12/24 06:53:26;;;;;;;2.42;0.85;;;;;;;18.86;50.92;100454.53;4965326;28;20142;-32
2023/12/24 06:55:53;;;;;;;3.03;1.25;;;;;;;18.91;50.44;100462.91;4962922;28;20059;-33
2023/12/24 06:58:19;;;;;;;5.50;1.42;;;;;;;18.97;50.35;100464.06;4969330;28;20194;-33
2023/12/24 07:00:46;;;;;;;4.57;1.45;;;;;;;19.03;50.19;100471.44;4965222;28;20050;-33
2023/12/24 07:03:13;;;;;;;2.97;1.38;;;;;;;19.10;50.51;100464.41;4964751;28;20438;-33
2023/12/24 07:05:41;;;;;;;7.63;3.13;;;;;;;19.15;50.37;100464.72;4968302;28;20055;-33
2023/12/24 07:08:08;;;;;;;8.50;4.07;;;;;;;19.20;50.07;100459.66;4969939;28;20054;-33
2023/12/24 07:10:36;;;;;;;9.85;4.30;;;;;;;19.27;50.15;100461.69;4967363;28;20342;-33
2023/12/24 07:13:03;;;;;;;10.63;5.05;;;;;;;19.31;50.29;100461.16;4969174;28;20126;-33
2023/12/24 07:15:37;;;;;;;11.23;5.88;;;;;;;19.36;49.76;100464.16;4967636;28;20085;-33
2023/12/24 07:18:03;;;;;;;10.90;5.82;;;;;;;19.42;50.30;100451.91;4970407;28;20043;-33
2023/12/24 07:20:30;;;;;;;10.68;5.85;;;;;;;19.46;49.88;100462.16;4966935;28;20109;-33
2023/12/24 07:22:57;;;;;;;14.10;6.50;;;;;;;19.50;49.61;100459.94;4970981;28;20392;-33
2023/12/24 07:25:27;;;;;;;14.98;7.68;;;;;;;19.55;50.02;100464.81;4967938;28;20055;-33
2023/12/24 07:27:53;;;;;;;11.50;6.15;;;;;;;19.60;49.90;100467.81;4969644;28;20390;-32
2023/12/24 07:30:20;;;;;;;14.02;7.32;;;;;;;19.62;49.45;100461.28;4966434;28;20110;-32
2023/12/24 07:32:46;;;;;;;13.30;7.45;;;;;;;19.66;50.04;100451.03;4965794;28;20589;-32
2023/12/24 07:35:13;;;;;;;15.85;8.13;;;;;;;19.68;49.52;100441.75;4966076;28;20057;-32
2023/12/24 07:37:41;;;;;;;16.27;8.90;;;;;;;19.71;49.56;100443.28;4965820;28;20051;-32
2023/12/24 07:40:08;;;;;;;24.33;12.57;;;;;;;19.70;49.79;100442.44;4966321;28;20110;-32
2023/12/24 07:42:35;;;;;;;30.48;16.75;;;;;;;19.71;49.28;100443.28;4964178;28;20417;-32
2023/12/24 07:45:03;;;;;;;27.38;16.08;;;;;;;19.69;49.56;100439.91;4966790;28;20387;-32
2023/12/24 07:47:30;;;;;;;31.27;16.15;;;;;;;19.66;50.19;100449.19;4964062;28;20046;-32
2023/12/24 07:49:57;;;;;;;30.70;16.73;;;;;;;19.62;49.67;100453.22;4963898;28;20056;-33
2023/12/24 07:52:25;;;;;;;33.70;17.95;;;;;;;19.59;50.34;100450.00;4964955;28;20086;-33
2023/12/24 07:54:51;;;;;;;42.10;23.08;;;;;;;19.54;50.61;100437.09;4965713;28;20138;-33
2023/12/24 07:57:18;;;;;;;32.63;19.20;;;;;;;19.50;50.66;100438.44;4964894;28;20114;-33
2023/12/24 07:59:45;;;;;;;27.38;15.50;;;;;;;19.46;50.18;100440.63;4962700;28;20116;-32
2023/12/24 08:02:11;;;;;;;28.48;16.75;;;;;;;19.42;50.27;100438.47;4966381;28;20046;-32
2023/12/24 08:04:38;;;;;;;30.05;16.88;;;;;;;19.40;50.62;100440.47;4964452;28;20328;-33
2023/12/24 08:07:05;;;;;;;32.38;17.95;;;;;;;19.36;50.31;100437.28;4967039;28;20054;-32
2023/12/24 08:09:32;;;;;;;32.13;19.13;;;;;;;19.33;50.41;100448.38;4966669;28;20053;-32
2023/12/24 08:11:58;;;;;;;44.38;26.73;;;;;;;19.31;50.32;100445.03;4961213;28;20058;-35
2023/12/24 08:14:25;;;;;;;64.15;37.92;;;;;;;19.24;50.80;100436.81;4954741;28;20061;-34
2023/12/24 08:16:51;;;;;;;75.28;42.25;;;;;;;19.17;51.14;100445.72;4960691;28;20466;-34
2023/12/24 08:19:18;;;;;;;73.28;40.55;;;;;;;19.10;51.95;100437.53;4964295;28;20101;-34
2023/12/24 08:21:45;;;;;;;69.57;40.08;;;;;;;19.03;51.95;100439.22;4963896;28;20276;-34
2023/12/24 08:24:11;;;;;;;61.70;37.33;;;;;;;18.98;52.01;100446.97;4957149;28;20114;-35
2023/12/24 08:26:38;;;;;;;58.75;34.20;;;;;;;18.94;52.24;100446.47;4929950;28;20062;-34
2023/12/24 08:29:05;;;;;;;57.30;33.83;;;;;;;18.90;52.53;100447.81;4959184;28;20354;-34
2023/12/24 08:31:31;;;;;;;56.20;32.95;;;;;;;18.88;52.95;100457.03;4956254;28;20065;-34
2023/12/24 08:33:58;;;;;;;53.20;30.85;;;;;;;18.89;53.08;100456.84;4961512;28;20169;-34
2023/12/24 08:36:24;;;;;;;50.53;31.52;;;;;;;18.90;52.92;100460.41;4952808;28;20081;-35
2023/12/24 08:38:51;;;;;;;50.63;30.65;;;;;;;18.96;52.60;100471.28;4961978;28;20316;-36
2023/12/24 08:41:18;;;;;;;51.70;30.25;;;;;;;19.02;52.47;100455.53;4962871;28;20153;-35
2023/12/24 08:43:44;;;;;;;52.53;31.25;;;;;;;19.08;52.87;100447.59;4964784;28;20064;-36
2023/12/24 08:46:11;;;;;;;52.45;30.55;;;;;;;19.15;52.72;100437.03;4927230;28;20090;-36
2023/12/24 08:48:38;;;;;;;46.05;27.10;;;;;;;19.22;51.80;100441.53;4962277;28;20440;-35
2023/12/24 08:51:04;;;;;;;46.92;26.15;;;;;;;19.30;51.86;100442.53;4963081;28;20055;-35
2023/12/24 08:53:31;;;;;;;43.60;25.65;;;;;;;19.37;52.26;100430.91;4964437;28;20136;-36
2023/12/24 08:55:58;;;;;;;45.38;26.30;;;;;;;19.45;51.45;100438.94;4963113;28;20054;-35
2023/12/24 08:58:25;;;;;;;42.80;25.63;;;;;;;19.54;51.16;100439.78;4961558;28;20493;-35
2023/12/24 09:00:51;;;;;;;42.63;24.63;;;;;;;19.63;51.88;100429.84;4964558;28;20170;-36
2023/12/24 09:03:18;;;;;;;38.92;24.27;;;;;;;19.72;51.64;100450.31;4962712;28;20324;-36
2023/12/24 09:05:45;;;;;;;42.42;23.40;;;;;;;19.80;50.90;100438.69;4934520;28;20462;-36
2023/12/24 09:08:11;;;;;;;39.65;24.10;;;;;;;19.85;51.42;100436.31;4961074;28;20065;-37
2023/12/24 09:10:41;;;;;;;38.05;22.38;;;;;;;19.89;51.27;100429.56;4962403;28;20057;-36
2023/12/24 09:13:07;;;;;;;38.13;22.10;;;;;;;19.91;50.50;100424.84;4962698;28;20112;-35
2023/12/24 09:15:34;;;;;;;32.97;21.10;;;;;;;19.90;51.15;100404.34;4963426;28;20149;-35
2023/12/24 09:18:02;;;;;;;38.50;21.40;;;;;;;19.90;50.89;100407.88;4962946;28;20065;-36
2023/12/24 09:20:28;;;;;;;35.83;20.88;;;;;;;19.89;50.50;100397.28;4963855;28;20126;-36
2023/12/24 09:22:55;;;;;;;34.47;20.77;;;;;;;19.88;51.45;100399.13;4962909;28;20659;-36
2023/12/24 09:25:22;;;;;;;33.20;19.45;;;;;;;19.87;51.20;100404.72;4962389;28;20366;-36
2023/12/24 09:27:48;;;;;;;32.92;20.55;;;;;;;19.86;50.84;100405.69;4922930;28;20660;-36
2023/12/24 09:30:15;;;;;;;34.05;19.17;;;;;;;19.85;51.34;100396.78;4962851;28;20057;-36
2023/12/24 09:32:43;;;;;;;32.50;19.55;;;;;;;19.85;50.52;100395.97;4961214;28;20054;-36
2023/12/24 09:35:10;;;;;;;32.08;18.55;;;;;;;19.84;51.25;100402.38;4957663;28;20058;-36
2023/12/24 09:37:36;;;;;;;31.75;18.77;;;;;;;19.83;51.43;100400.69;4963737;28;20051;-36
2023/12/24 09:40:03;;;;;;;30.08;17.25;;;;;;;19.82;50.69;100390.94;4962730;28;20137;-36
2023/12/24 09:42:30;;;;;;;29.00;18.00;;;;;;;19.81;50.64;100395.47;4962425;28;20054;-36
2023/12/24 09:44:58;;;;;;;27.80;17.15;;;;;;;19.81;50.90;100400.03;4960483;28;20059;-36
2023/12/24 09:47:24;;;;;;;29.73;16.58;;;;;;;19.75;51.10;100406.13;4915403;28;20063;-36
2023/12/24 09:49:51;;;;;;;34.30;16.00;;;;;;;19.67;51.73;100423.13;4959134;28;20055;-36
2023/12/24 09:52:19;;;;;;;57.38;22.80;;;;;;;19.60;52.31;100424.78;4962577;28;20324;-34
2023/12/24 09:54:46;;;;;;;46.13;20.70;;;;;;;19.54;53.00;100428.16;4963861;28;20062;-34
2023/12/24 09:57:13;;;;;;;57.47;21.17;;;;;;;19.52;53.42;100427.50;4963354;28;20438;-35
2023/12/24 09:59:39;;;;;;;43.65;19.67;;;;;;;19.48;53.01;100441.28;4962150;28;20050;-35
2023/12/24 10:02:06;;;;;;;44.10;18.05;;;;;;;19.46;53.18;100437.94;4960597;28;20061;-35
2023/12/24 10:04:33;;;;;;;46.30;18.48;;;;;;;19.43;53.06;100445.53;4962430;28;20079;-34
2023/12/24 10:06:59;;;;;;;40.72;17.85;;;;;;;19.40;53.85;100452.06;4926922;28;20058;-34
2023/12/24 10:09:49;;;;;;;37.63;16.00;;;;;;;19.35;54.26;100442.84;4962529;28;20386;-34
2023/12/24 10:12:17;;;;;;;35.13;15.98;;;;;;;19.36;53.90;100431.91;4960399;28;20050;-35
2023/12/24 10:14:58;;;;;;;40.33;16.65;;;;;;;19.33;54.42;100436.81;4962745;28;20051;-34
2023/12/24 10:17:29;;;;;;;36.28;17.13;;;;;;;19.35;53.59;100432.09;4963260;28;20054;-34
2023/12/24 10:20:04;;;;;;;33.95;15.02;;;;;;;19.36;53.92;100433.78;4961031;28;20422;-34
2023/12/24 10:22:30;;;;;;;37.47;14.57;;;;;;;19.35;54.18;100416.81;4959832;28;20489;-34
2023/12/24 10:25:05;;;;;;;33.53;14.93;;;;;;;19.33;53.96;100413.44;4956704;28;20058;-35
2023/12/24 10:27:32;;;;;;;38.05;14.70;;;;;;;19.32;54.24;100427.06;4916705;28;20281;-35
2023/12/24 10:30:11;;;;;;;30.08;14.50;;;;;;;19.27;54.61;100405.25;4958321;28;20138;-35
2023/12/24 10:32:39;;;;;;;29.80;14.88;;;;;;;19.29;54.57;100420.19;4960281;28;20078;-35
2023/12/24 10:35:06;;;;;;;30.05;14.27;;;;;;;19.32;54.64;100419.00;4959044;28;20173;-35
2023/12/24 10:37:33;;;;;;;32.25;13.60;;;;;;;19.34;54.70;100406.25;4962160;28;20362;-35
2023/12/24 10:40:10;;;;;;;33.05;14.23;;;;;;;19.36;55.76;100404.22;4962694;28;20440;-35
2023/12/24 10:42:38;;;;;;;32.03;13.45;;;;;;;19.36;55.84;100406.91;4960515;28;20371;-35
2023/12/24 10:45:06;;;;;;;45.20;14.90;;;;;;;19.35;56.22;100400.69;4962724;28;20137;-36
2023/12/24 10:47:34;;;;;;;49.28;17.20;;;;;;;19.34;56.73;100398.19;4927515;28;20191;-36
2023/12/24 10:50:03;;;;;;;44.97;18.35;;;;;;;19.33;56.45;100404.56;4963869;28;20073;-35
2023/12/24 10:52:30;;;;;;;47.22;16.08;;;;;;;19.31;56.73;100395.84;4959755;28;20397;-35
2023/12/24 10:54:58;;;;;;;37.63;15.35;;;;;;;19.30;56.27;100392.31;4956733;28;20217;-35
2023/12/24 10:57:51;;;;;;;39.42;14.52;;;;;;;19.28;57.02;100377.38;4960800;28;20145;-35
2023/12/24 11:00:20;;;;;;;35.53;14.10;;;;;;;19.30;57.02;100375.38;4957847;28;20066;-36
2023/12/24 11:02:49;;;;;;;30.52;13.80;;;;;;;19.30;56.77;100359.25;4962721;28;20086;-35
2023/12/24 11:05:46;;;;;;;36.38;14.20;;;;;;;19.31;56.61;100356.38;4958244;28;20082;-35
2023/12/24 11:08:19;;;;;;;43.45;15.13;;;;;;;19.36;56.26;100355.84;4925182;28;20054;-35
2023/12/24 11:11:06;;;;;;;38.10;16.60;;;;;;;19.39;56.22;100353.66;4962727;28;20050;-35
2023/12/24 11:13:36;;;;;;;35.45;17.75;;;;;;;19.43;55.89;100348.75;4962260;28;20583;-35
2023/12/24 11:16:05;;;;;;;40.13;19.67;;;;;;;19.44;56.04;100355.81;4964085;28;20401;-35
2023/12/24 11:18:48;;;;;;;46.80;21.42;;;;;;;19.44;55.74;100337.81;4960363;28;20069;-33
2023/12/24 11:21:18;;;;;;;42.00;20.80;;;;;;;19.45;56.25;100357.47;4963994;28;20054;-33